< < Back
Terminal Aerodrome Forecast


Current Version              Previous Versions:   1  2  3  4  5  6  7  8  9  

Terminal Aerodrome Forecast

105
FTUS44 KMRX 291301 AAA
TAFCHA
TAF AMD
KCHA 291301Z 2913/3012 00000KT 4SM BR SCT002
     FM291330 25003KT P6SM SCT250=

Latest METAR

333
SAUS80 KWBC 301700 RRB
MTRCHA
METAR KCHA 301653Z VRB03KT 10SM FEW050 FEW070 32/17 A3011 RMK AO2 SLP185
T03170167


USA.gov is the U.S. government's official web portal to all federal, state and local government web resources and services.